Time;durP1;ratioP1;P1;durP2;ratioP2;P2;SDS_P1;SDS_P2;PMS_P1;PMS_P2;Temp;Humidity;BMP_temperature;BMP_pressure;BME280_temperature;BME280_humidity;BME280_pressure;Samples;Min_cycle;Max_cycle;Signal;HPM_P1;HPM_P2
2022/05/21 00:02:23;;;;;;;7.40;5.93;;;;;;;11.84;91.65;101970.97;5073287;28;20028;-35
2022/05/21 00:04:49;;;;;;;6.97;6.05;;;;;;;11.85;91.75;101974.50;5074619;28;20066;-35
2022/05/21 00:07:14;;;;;;;7.55;6.18;;;;;;;11.83;91.49;101973.91;5076707;28;20063;-35
2022/05/21 00:09:40;;;;;;;7.43;5.93;;;;;;;11.84;91.91;101973.66;5076932;28;20034;-36
2022/05/21 00:12:07;;;;;;;9.15;6.03;;;;;;;11.79;91.62;101968.03;5076657;28;20743;-35
2022/05/21 00:14:34;;;;;;;6.22;5.50;;;;;;;11.83;91.43;101974.72;5076421;28;20492;-35
2022/05/21 00:17:00;;;;;;;6.78;5.43;;;;;;;11.86;92.04;101978.91;5075703;28;20492;-39
2022/05/21 00:19:25;;;;;;;;;;;;;;;11.97;91.02;101980.94;5077471;28;20067;-35
2022/05/21 00:21:51;;;;;;;5.43;4.90;;;;;;;11.93;91.70;101973.44;5076682;28;20276;-35
2022/05/21 00:24:16;;;;;;;6.03;5.23;;;;;;;11.91;91.68;101975.53;5076901;28;20033;-35
2022/05/21 00:26:41;;;;;;;5.88;5.15;;;;;;;11.99;91.49;101978.00;5077368;28;20317;-35
2022/05/21 00:29:07;;;;;;;7.27;5.20;;;;;;;11.98;91.46;101977.19;5076776;28;20028;-35
2022/05/21 00:31:32;;;;;;;5.75;5.25;;;;;;;11.99;91.20;101978.00;5076278;28;20119;-35
2022/05/21 00:33:58;;;;;;;5.88;5.25;;;;;;;11.95;91.49;101976.78;5076562;28;20081;-35
2022/05/21 00:36:23;;;;;;;6.47;5.32;;;;;;;11.90;91.79;101984.72;5076166;28;20397;-35
2022/05/21 00:38:48;;;;;;;7.60;5.07;;;;;;;11.91;91.65;101979.09;5076179;28;20035;-35
2022/05/21 00:41:17;;;;;;;8.07;5.30;;;;;;;11.91;91.51;101981.81;5076001;28;20259;-35
2022/05/21 00:43:57;;;;;;;6.55;4.68;;;;;;;11.99;91.61;101981.56;5075911;28;20067;-35
2022/05/21 00:46:25;;;;;;;6.05;4.80;;;;;;;12.01;90.99;101984.06;5076660;28;20073;-35
2022/05/21 00:49:01;;;;;;;5.95;5.00;;;;;;;11.92;91.57;101971.78;5076094;28;20074;-35
2022/05/21 00:51:31;;;;;;;6.47;4.32;;;;;;;11.92;91.43;101978.03;5075812;28;20058;-35
2022/05/21 00:53:59;;;;;;;6.78;4.18;;;;;;;11.91;91.67;101980.94;5076341;28;20035;-35
2022/05/21 00:56:27;;;;;;;7.95;4.70;;;;;;;11.94;91.48;101992.22;5076693;28;20047;-35
2022/05/21 01:01:45;;;;;;;6.28;3.97;;;;;;;11.89;91.20;101981.16;5075989;28;20043;-35
2022/05/21 01:04:11;;;;;;;4.22;3.72;;;;;;;11.89;91.46;101970.31;5076041;28;20032;-35
2022/05/21 01:06:36;;;;;;;5.03;3.75;;;;;;;12.00;91.69;101979.69;5075761;28;20472;-35
2022/05/21 01:09:03;;;;;;;8.25;4.00;;;;;;;11.88;91.42;101955.13;5075929;28;20036;-35
2022/05/21 01:11:29;;;;;;;5.43;3.42;;;;;;;12.02;91.53;101981.16;5075764;28;20036;-35
2022/05/21 01:13:54;;;;;;;6.32;3.95;;;;;;;12.04;91.14;101975.50;5075646;28;20457;-35
2022/05/21 01:16:20;;;;;;;5.63;3.58;;;;;;;12.02;91.39;101975.72;5075850;28;20037;-35
2022/05/21 01:18:45;;;;;;;5.22;3.63;;;;;;;12.04;91.34;101981.75;5076190;28;20021;-35
2022/05/21 01:21:11;;;;;;;4.77;3.10;;;;;;;12.03;91.76;101971.97;5076560;28;20041;-35
2022/05/21 01:23:36;;;;;;;6.45;3.22;;;;;;;12.05;90.96;101977.16;5075799;28;20119;-35
2022/05/21 01:26:05;;;;;;;6.13;3.78;;;;;;;12.06;91.48;101970.72;5091182;28;20376;-35
2022/05/21 01:28:33;;;;;;;9.68;3.70;;;;;;;12.06;90.96;101976.13;5075320;28;20028;-35
2022/05/21 01:31:00;;;;;;;5.68;3.15;;;;;;;12.11;91.75;101977.16;5073910;28;20044;-35
2022/05/21 01:33:32;;;;;;;6.00;3.20;;;;;;;12.10;91.25;101975.50;5075039;28;20028;-35
2022/05/21 01:35:58;;;;;;;6.53;3.42;;;;;;;12.08;91.15;101966.72;5075068;28;20388;-35
2022/05/21 01:38:25;;;;;;;5.47;3.25;;;;;;;12.03;91.84;101976.56;5075837;28;20051;-35
2022/05/21 01:40:51;;;;;;;6.90;3.03;;;;;;;12.08;91.64;101974.03;5075197;28;20112;-35
2022/05/21 01:46:02;;;;;;;5.38;2.95;;;;;;;12.05;91.93;101969.88;5075060;28;20162;-35
2022/05/21 01:48:30;;;;;;;3.90;2.78;;;;;;;12.03;91.98;101974.66;5075538;28;20032;-35
2022/05/21 01:50:57;;;;;;;13.13;3.13;;;;;;;12.02;91.74;101966.75;5074728;28;20563;-35
2022/05/21 01:53:24;;;;;;;6.50;3.00;;;;;;;12.05;91.61;101975.31;5075239;28;20115;-35
2022/05/21 01:55:50;;;;;;;6.13;3.10;;;;;;;12.03;91.61;101971.97;5074848;28;20031;-35
2022/05/21 01:58:16;;;;;;;6.07;2.70;;;;;;;12.03;91.97;101963.00;5074524;28;20416;-35
2022/05/21 02:00:41;;;;;;;;;;;;;;;12.17;91.25;101972.75;5074224;28;20086;-35
2022/05/21 02:03:08;;;;;;;6.03;2.90;;;;;;;12.11;91.30;101976.31;5074663;28;19908;-35
2022/05/21 02:05:34;;;;;;;7.47;3.25;;;;;;;12.11;91.82;101971.72;5074963;28;20025;-35
2022/05/21 02:07:59;;;;;;;9.00;3.67;;;;;;;12.16;91.34;101973.81;5074642;28;20131;-35
2022/05/21 02:10:25;;;;;;;6.93;3.23;;;;;;;12.10;91.24;101972.78;5074893;28;20036;-35
2022/05/21 02:12:50;;;;;;;4.60;3.40;;;;;;;12.12;91.84;101972.56;5074332;28;20063;-35
2022/05/21 02:15:16;;;;;;;7.65;3.95;;;;;;;12.03;92.12;101961.13;5073826;28;20357;-35
2022/05/21 02:17:41;;;;;;;7.05;3.97;;;;;;;12.08;92.52;101977.56;5075197;28;20028;-35
2022/05/21 02:20:07;;;;;;;5.43;3.67;;;;;;;12.19;92.13;101983.38;5074494;28;20044;-35
2022/05/21 02:22:33;;;;;;;6.68;4.03;;;;;;;12.10;92.24;101975.50;5075352;28;20029;-35
2022/05/21 02:24:58;;;;;;;11.75;4.70;;;;;;;12.19;92.41;101988.81;5074006;28;20473;-35
2022/05/21 02:27:24;;;;;;;7.73;4.50;;;;;;;12.22;92.69;101993.81;5074035;28;20029;-35
2022/05/21 02:29:49;;;;;;;8.10;4.17;;;;;;;12.23;92.24;101982.75;5074225;28;20032;-35
2022/05/21 02:32:14;;;;;;;9.23;5.23;;;;;;;12.23;92.39;101979.19;5074748;28;20729;-34
2022/05/21 02:34:41;;;;;;;10.35;5.10;;;;;;;12.18;92.11;101971.69;5074293;28;20465;-34
2022/05/21 02:39:51;;;;;;;8.82;4.82;;;;;;;12.19;92.66;101975.25;5074121;28;20537;-35
2022/05/21 02:45:03;;;;;;;8.98;5.07;;;;;;;12.22;92.82;101974.81;5074373;28;20089;-34
2022/05/21 02:47:29;;;;;;;10.70;5.13;;;;;;;12.08;92.57;101946.91;5074662;28;20024;-35
2022/05/21 02:49:55;;;;;;;13.65;5.60;;;;;;;12.21;92.95;101975.88;5074014;28;20046;-35
2022/05/21 02:52:20;;;;;;;8.45;5.07;;;;;;;12.22;93.02;101975.66;5073755;28;20460;-35
2022/05/21 02:54:45;;;;;;;9.23;5.00;;;;;;;12.22;93.24;101982.97;5073539;28;20489;-35
2022/05/21 02:57:11;;;;;;;7.67;5.13;;;;;;;12.21;92.90;101984.00;5073729;28;20452;-35
2022/05/21 02:59:37;;;;;;;10.75;5.30;;;;;;;12.22;92.85;101982.97;5072287;28;20043;-35
2022/05/21 03:02:03;;;;;;;9.68;5.35;;;;;;;12.14;92.82;101970.47;5073397;28;20430;-35
2022/05/21 03:04:28;;;;;;;10.80;5.47;;;;;;;12.26;92.72;101986.91;5074046;28;20035;-35
2022/05/21 03:06:54;;;;;;;9.00;4.80;;;;;;;12.27;93.29;101985.88;5073298;28;20032;-35
2022/05/21 03:12:04;;;;;;;9.80;5.43;;;;;;;12.22;93.42;101982.97;5073696;28;20479;-35
2022/05/21 03:14:29;;;;;;;12.68;5.60;;;;;;;12.25;93.19;101982.50;5073400;28;20032;-35
2022/05/21 03:16:59;;;;;;;9.40;5.63;;;;;;;12.16;93.02;101960.25;5073992;28;20067;-35
2022/05/21 03:19:25;;;;;;;9.00;5.30;;;;;;;12.26;92.97;101973.34;5073457;28;20075;-35
2022/05/21 03:21:51;;;;;;;;;;;;;;;12.36;92.67;101977.28;5073998;28;20532;-35
2022/05/21 03:24:16;;;;;;;12.60;6.37;;;;;;;12.29;92.93;101983.75;5073314;28;19948;-35
2022/05/21 03:26:41;;;;;;;9.67;5.50;;;;;;;12.28;92.74;101982.91;5073313;28;20111;-35
2022/05/21 03:29:06;;;;;;;10.20;6.00;;;;;;;12.22;93.46;101963.97;5073112;28;20279;-35
2022/05/21 03:31:32;;;;;;;10.00;5.70;;;;;;;12.29;93.65;101976.44;5073221;28;20469;-35
2022/05/21 03:33:57;;;;;;;10.68;6.10;;;;;;;12.24;93.41;101976.25;5073419;28;20815;-35
2022/05/21 03:36:22;;;;;;;9.70;5.97;;;;;;;12.28;93.64;101972.06;5072898;28;20055;-35
2022/05/21 03:38:49;;;;;;;12.30;6.37;;;;;;;12.18;93.38;101958.13;5071976;28;20166;-35
2022/05/21 03:41:15;;;;;;;10.95;5.68;;;;;;;12.34;93.77;101992.06;5073087;28;20021;-35
2022/05/21 03:43:40;;;;;;;10.23;6.43;;;;;;;12.33;93.79;101982.28;5072735;28;20032;-35
2022/05/21 03:46:05;;;;;;;11.30;6.27;;;;;;;12.17;93.61;101959.19;5073309;28;20277;-35
2022/05/21 03:48:31;;;;;;;12.48;6.80;;;;;;;12.35;93.98;101985.63;5073251;28;20266;-35
2022/05/21 03:50:57;;;;;;;12.35;6.63;;;;;;;12.36;93.97;101984.56;5072479;28;20121;-35
2022/05/21 03:53:22;;;;;;;11.43;6.50;;;;;;;12.31;93.95;101979.78;5073296;28;20025;-35
2022/05/21 03:55:48;;;;;;;11.77;7.33;;;;;;;12.28;93.89;101991.06;5072807;28;20796;-35
2022/05/21 03:58:15;;;;;;;12.35;6.72;;;;;;;12.34;94.22;101994.78;5072830;28;20152;-35
2022/05/21 04:00:40;;;;;;;10.32;6.32;;;;;;;12.30;93.78;101990.88;5072187;28;20033;-35
2022/05/21 04:03:06;;;;;;;11.15;6.85;;;;;;;12.26;94.38;101995.06;5073201;28;20024;-35
2022/05/21 04:05:32;;;;;;;11.80;6.57;;;;;;;12.31;94.03;102003.38;5072586;28;20401;-35
2022/05/21 04:07:57;;;;;;;13.43;7.35;;;;;;;12.35;94.14;101996.47;5072844;28;20031;-35
2022/05/21 04:10:23;;;;;;;14.03;6.57;;;;;;;12.28;94.37;101990.22;5073313;28;20067;-35
2022/05/21 04:12:48;;;;;;;11.73;7.07;;;;;;;12.30;94.57;101994.41;5072746;28;20278;-35
2022/05/21 04:15:14;;;;;;;12.15;6.78;;;;;;;12.33;94.55;102004.81;5073245;28;20259;-35
2022/05/21 04:17:40;;;;;;;12.45;7.03;;;;;;;12.34;94.47;102009.19;5073615;28;20024;-35
2022/05/21 04:20:09;;;;;;;14.55;7.65;;;;;;;12.33;94.93;102012.13;5072212;28;20139;-35
2022/05/21 04:22:34;;;;;;;15.55;7.57;;;;;;;12.36;94.64;102003.56;5073193;28;20032;-35
2022/05/21 04:25:00;;;;;;;11.75;6.65;;;;;;;12.31;94.30;101996.06;5072321;28;20021;-35
2022/05/21 04:27:25;;;;;;;12.32;6.05;;;;;;;12.41;94.52;102013.78;5072663;28;20040;-35
2022/05/21 04:29:51;;;;;;;16.90;7.40;;;;;;;12.41;94.46;102016.47;5073124;28;20088;-35
2022/05/21 04:32:17;;;;;;;15.32;7.28;;;;;;;12.36;94.42;102009.00;5072677;28;20259;-35
2022/05/21 04:34:42;;;;;;;;;;;;;;;12.48;93.60;102020.00;5072983;28;20036;-35
2022/05/21 04:37:08;;;;;;;14.70;6.90;;;;;;;12.44;93.86;102016.88;5072776;28;20389;-35
2022/05/21 04:39:33;;;;;;;19.50;8.43;;;;;;;12.38;93.81;102006.88;5072443;28;20025;-35
2022/05/21 04:42:00;;;;;;;14.53;6.50;;;;;;;12.44;93.96;102024.16;5072387;28;20115;-35
2022/05/21 04:44:31;;;;;;;14.15;6.65;;;;;;;12.47;94.48;102015.63;5072450;28;20074;-35
2022/05/21 04:46:56;;;;;;;14.82;6.20;;;;;;;12.50;94.00;102032.31;5072802;28;20044;-35
2022/05/21 04:49:22;;;;;;;17.80;6.90;;;;;;;12.49;94.06;102024.38;5072161;28;20025;-35
2022/05/21 04:51:47;;;;;;;15.07;6.37;;;;;;;12.49;93.90;102027.94;5075290;28;20025;-35
2022/05/21 04:54:12;;;;;;;14.30;6.63;;;;;;;12.50;93.97;102021.47;5076327;28;20028;-35
2022/05/21 04:56:37;;;;;;;16.83;6.77;;;;;;;12.52;94.03;102021.22;5076316;28;20270;-34
2022/05/21 04:59:03;;;;;;;13.63;6.50;;;;;;;12.61;94.12;102028.09;5076106;28;20176;-34
2022/05/21 05:01:30;;;;;;;16.10;7.27;;;;;;;12.61;93.77;102020.78;5075908;28;20499;-35
2022/05/21 05:03:55;;;;;;;16.10;6.75;;;;;;;12.65;94.20;102036.63;5075805;28;20275;-35
2022/05/21 05:06:20;;;;;;;12.13;6.13;;;;;;;12.67;93.83;102034.53;5074667;28;20446;-35
2022/05/21 05:08:46;;;;;;;14.50;5.90;;;;;;;12.65;93.93;102017.63;5075521;28;20032;-35
2022/05/21 05:11:11;;;;;;;14.10;6.70;;;;;;;12.74;93.70;102029.91;5076068;28;20024;-35
2022/05/21 05:13:36;;;;;;;16.70;7.07;;;;;;;12.74;93.62;102035.34;5075979;28;20039;-35
2022/05/21 05:16:02;;;;;;;13.07;6.40;;;;;;;12.80;93.72;102042.59;5076150;28;20029;-35
2022/05/21 05:18:30;;;;;;;12.32;6.30;;;;;;;12.75;93.48;102035.13;5075429;28;20293;-35
2022/05/21 05:20:56;;;;;;;16.92;6.45;;;;;;;12.87;93.55;102041.50;5076516;28;20051;-35
2022/05/21 05:23:21;;;;;;;12.10;6.22;;;;;;;12.83;93.24;102039.44;5075512;28;20400;-35
2022/05/21 05:25:47;;;;;;;14.32;6.32;;;;;;;12.91;93.24;102055.50;5076067;28;20036;-35
2022/05/21 05:28:15;;;;;;;14.10;6.07;;;;;;;12.96;93.35;102058.38;5075470;28;20032;-35
2022/05/21 05:30:41;;;;;;;15.88;7.10;;;;;;;12.94;93.22;102052.34;5075448;28;20021;-35
2022/05/21 05:33:06;;;;;;;14.70;6.35;;;;;;;12.91;92.73;102060.09;5075457;28;20032;-35
2022/05/21 05:35:31;;;;;;;15.97;7.07;;;;;;;12.94;92.74;102060.50;5075646;28;20028;-35
2022/05/21 05:37:57;;;;;;;18.98;6.75;;;;;;;12.96;92.68;102060.28;5075969;28;20024;-35
2022/05/21 05:40:23;;;;;;;12.53;6.00;;;;;;;12.88;93.01;102059.50;5075330;28;20028;-35
2022/05/21 05:42:49;;;;;;;11.57;5.82;;;;;;;13.12;92.72;102068.72;5075858;28;20223;-35
2022/05/21 05:45:15;;;;;;;13.07;5.50;;;;;;;13.20;92.23;102072.25;5075691;28;20052;-35
2022/05/21 05:47:40;;;;;;;12.52;5.95;;;;;;;13.18;92.26;102064.34;5075285;28;20412;-35
2022/05/21 05:50:07;;;;;;;13.50;6.00;;;;;;;13.24;91.80;102079.78;5073851;28;20106;-35
2022/05/21 05:52:32;;;;;;;14.13;6.43;;;;;;;13.29;91.76;102071.81;5074714;28;20028;-35
2022/05/21 05:54:57;;;;;;;14.35;5.97;;;;;;;13.26;91.36;102055.94;5074919;28;20033;-35
2022/05/21 05:57:23;;;;;;;15.10;6.73;;;;;;;13.42;91.44;102070.03;5075162;28;20465;-35
2022/05/21 05:59:50;;;;;;;15.18;6.28;;;;;;;13.54;91.14;102065.56;5074473;28;20036;-35
2022/05/21 06:05:19;;;;;;;15.63;6.20;;;;;;;13.51;90.22;102074.16;5075100;28;20507;-35
2022/05/21 06:07:53;;;;;;;14.18;5.80;;;;;;;13.41;90.39;102066.47;5074975;28;20033;-35
2022/05/21 06:10:23;;;;;;;17.40;6.88;;;;;;;13.41;90.69;102080.06;5075609;28;20461;-35
2022/05/21 06:12:48;;;;;;;16.13;6.93;;;;;;;13.42;90.75;102068.16;5074304;28;20044;-36
2022/05/21 06:15:15;;;;;;;14.83;6.37;;;;;;;13.53;90.71;102081.03;5074208;28;20470;-35
2022/05/21 06:17:40;;;;;;;;;;;;;;;13.70;90.60;102080.47;5074633;28;20255;-35
2022/05/21 06:20:09;;;;;;;14.52;6.22;;;;;;;13.76;89.98;102071.44;5074062;28;19923;-35
2022/05/21 06:22:35;;;;;;;13.55;6.00;;;;;;;13.73;89.57;102080.88;5075041;28;20090;-35
2022/05/21 06:25:01;;;;;;;13.70;6.32;;;;;;;13.69;89.01;102082.38;5074517;28;20024;-35
2022/05/21 06:27:27;;;;;;;13.85;5.55;;;;;;;13.66;89.79;102093.69;5073974;28;20466;-35
2022/05/21 06:29:52;;;;;;;20.85;8.00;;;;;;;13.72;89.16;102092.00;5073792;28;20028;-35
2022/05/21 06:32:17;;;;;;;13.77;5.70;;;;;;;13.72;89.46;102081.94;5073868;28;20036;-35
2022/05/21 06:34:43;;;;;;;16.55;6.28;;;;;;;13.75;89.38;102088.81;5073653;28;20048;-35
2022/05/21 06:37:11;;;;;;;14.03;5.67;;;;;;;13.86;88.98;102088.94;5073976;28;20431;-35
2022/05/21 06:39:38;;;;;;;14.05;6.53;;;;;;;13.78;88.62;102074.78;5073905;28;20286;-35
2022/05/21 06:42:04;;;;;;;15.52;5.78;;;;;;;13.91;87.57;102097.25;5074346;28;20021;-35
2022/05/21 06:44:30;;;;;;;13.98;5.93;;;;;;;13.98;87.80;102094.47;5073930;28;20082;-35
2022/05/21 06:46:56;;;;;;;15.10;6.03;;;;;;;14.09;88.44;102107.31;5073597;28;20119;-34
2022/05/21 06:49:22;;;;;;;15.02;5.97;;;;;;;14.13;87.81;102105.81;5073753;28;20035;-34
2022/05/21 06:51:52;;;;;;;18.05;6.68;;;;;;;14.18;88.23;102114.13;5073778;28;20028;-35
2022/05/21 06:54:18;;;;;;;16.95;6.60;;;;;;;14.17;87.91;102107.03;5073747;28;20082;-35
2022/05/21 06:56:43;;;;;;;;;;;;;;;14.29;87.84;102115.28;5074061;28;20035;-35
2022/05/21 06:59:09;;;;;;;11.95;6.18;;;;;;;14.12;87.44;102108.78;5073211;28;19916;-35
2022/05/21 07:01:34;;;;;;;15.30;7.55;;;;;;;14.07;87.89;102111.34;5073808;28;20029;-35
2022/05/21 07:04:00;;;;;;;13.93;7.43;;;;;;;14.10;88.52;102109.00;5072109;28;20038;-35
2022/05/21 07:09:09;;;;;;;10.75;5.55;;;;;;;14.09;86.92;102112.75;5073464;28;20059;-35
2022/05/21 07:11:35;;;;;;;18.77;6.57;;;;;;;14.16;87.21;102110.00;5073661;28;20482;-36
2022/05/21 07:14:01;;;;;;;13.20;5.63;;;;;;;14.26;87.25;102112.22;5072930;28;20457;-35
2022/05/21 07:16:26;;;;;;;;;;;;;;;14.41;86.82;102112.66;5072934;28;20081;-35
2022/05/21 07:18:51;;;;;;;11.43;4.87;;;;;;;14.40;85.19;102127.34;5073234;28;19963;-35
2022/05/21 07:21:18;;;;;;;;;;;;;;;14.52;86.20;102132.88;5074283;28;20072;-35
2022/05/21 07:23:45;;;;;;;10.20;4.72;;;;;;;14.48;84.49;102131.66;5071983;28;20384;-35
2022/05/21 07:26:11;;;;;;;14.63;5.05;;;;;;;14.47;82.98;102138.97;5073253;28;20039;-35
2022/05/21 07:28:36;;;;;;;11.05;5.10;;;;;;;14.60;84.85;102130.72;5072861;28;20028;-35
2022/05/21 07:31:02;;;;;;;11.35;5.30;;;;;;;14.65;83.78;102136.31;5073257;28;20052;-35
2022/05/21 07:33:27;;;;;;;11.68;4.65;;;;;;;14.71;82.75;102136.44;5073063;28;20031;-35
2022/05/21 07:35:52;;;;;;;11.23;4.57;;;;;;;14.75;82.19;102130.31;5073669;28;20111;-35
2022/05/21 07:38:18;;;;;;;;;;;;;;;14.85;81.96;102132.50;5073409;28;20364;-35
2022/05/21 07:40:46;;;;;;;19.75;5.18;;;;;;;14.78;82.32;102139.91;5073126;28;19913;-35
2022/05/21 07:43:17;;;;;;;15.57;5.15;;;;;;;14.87;83.11;102141.28;5073056;28;20107;-35
2022/05/21 07:45:43;;;;;;;11.93;4.75;;;;;;;14.87;82.23;102133.94;5073346;28;20032;-35
2022/05/21 07:48:10;;;;;;;;;;;;;;;15.05;82.78;102144.00;5073459;28;20029;-35
2022/05/21 07:50:40;;;;;;;12.18;4.70;;;;;;;15.02;80.22;102143.59;5071605;28;19919;-35
2022/05/21 07:53:12;;;;;;;12.50;4.78;;;;;;;15.09;80.21;102153.38;5072850;28;20115;-35
2022/05/21 07:55:38;;;;;;;15.15;5.10;;;;;;;15.12;79.71;102152.06;5072892;28;20473;-35
2022/05/21 07:58:04;;;;;;;11.65;4.20;;;;;;;15.17;80.40;102150.31;5072713;28;20040;-35
2022/05/21 08:00:29;;;;;;;13.73;4.10;;;;;;;15.19;79.27;102150.94;5072614;28;20024;-35
2022/05/21 08:02:55;;;;;;;13.93;4.67;;;;;;;15.22;78.62;102146.91;5072835;28;20037;-35
2022/05/21 08:05:20;;;;;;;14.82;5.03;;;;;;;15.28;77.70;102145.16;5072542;28;20251;-35
2022/05/21 08:07:50;;;;;;;12.10;4.22;;;;;;;15.58;78.20;102150.59;5073272;28;20029;-35
2022/05/21 08:10:16;;;;;;;13.68;4.43;;;;;;;15.70;76.79;102146.84;5072737;28;20028;-35
2022/05/21 08:12:41;;;;;;;11.20;4.55;;;;;;;15.58;75.97;102145.16;5073381;28;20116;-35
2022/05/21 08:15:06;;;;;;;;;;;;;;;15.77;77.93;102159.59;5073178;28;20033;-35
2022/05/21 08:17:32;;;;;;;10.63;3.78;;;;;;;15.68;76.54;102159.06;5072830;28;20414;-35
2022/05/21 08:19:57;;;;;;;13.63;4.28;;;;;;;15.70;75.68;102167.84;5072655;28;20114;-35
2022/05/21 08:27:51;;;;;;;12.20;4.40;;;;;;;15.75;76.26;102161.69;5076864;28;20043;-35
2022/05/21 08:30:16;;;;;;;12.95;4.70;;;;;;;15.81;75.94;102167.06;5076457;28;20025;-35
2022/05/21 08:32:42;;;;;;;;;;;;;;;15.98;77.44;102155.47;5077333;28;20074;-35
2022/05/21 08:35:07;;;;;;;10.13;4.27;;;;;;;15.96;76.99;102136.63;5076512;28;19919;-35
2022/05/21 08:37:35;;;;;;;11.82;3.72;;;;;;;16.16;74.97;102148.00;5076904;28;20267;-35
2022/05/21 08:40:01;;;;;;;11.90;4.05;;;;;;;16.29;73.26;102152.38;5076402;28;20032;-35
2022/05/21 08:42:38;;;;;;;11.30;3.70;;;;;;;16.39;74.23;102155.34;5077025;28;20385;-35
2022/05/21 08:45:20;;;;;;;16.92;4.55;;;;;;;16.39;73.95;102154.53;5076218;28;20033;-35
2022/05/21 08:47:53;;;;;;;10.30;3.20;;;;;;;16.27;73.61;102159.16;5076295;28;20373;-35
2022/05/21 08:50:21;;;;;;;9.25;3.10;;;;;;;16.25;72.17;102164.88;5076567;28;20043;-35
2022/05/21 08:53:02;;;;;;;9.98;3.22;;;;;;;16.41;73.49;102155.13;5076610;28;20028;-35
2022/05/21 08:55:33;;;;;;;7.28;3.17;;;;;;;16.34;72.67;102151.66;5068285;28;20112;-35
2022/05/21 08:58:26;;;;;;;11.15;4.20;;;;;;;16.33;74.04;102161.75;5056473;28;20053;-35
2022/05/21 09:00:52;;;;;;;10.85;3.78;;;;;;;16.20;73.45;102151.94;5056603;28;20029;-35
2022/05/21 09:03:20;;;;;;;10.98;3.95;;;;;;;16.20;73.71;102151.94;5055920;28;20036;-35
2022/05/21 09:06:04;;;;;;;8.95;3.95;;;;;;;16.17;74.40;102133.28;5056609;28;20033;-35
2022/05/21 09:08:36;;;;;;;9.57;3.45;;;;;;;16.47;72.02;102137.78;5055595;28;20396;-35
2022/05/21 09:11:12;;;;;;;10.70;2.67;;;;;;;16.92;72.68;102139.88;5055702;28;20040;-35
2022/05/21 09:13:42;;;;;;;10.30;2.70;;;;;;;17.33;70.56;102125.09;5056045;28;20124;-35
2022/05/21 09:18:58;;;;;;;13.30;4.38;;;;;;;17.47;68.78;102136.53;5055997;28;20384;-35
2022/05/21 09:21:25;;;;;;;;;;;;;;;17.56;69.95;102140.53;5056075;28;20128;-35
2022/05/21 09:23:56;;;;;;;14.57;5.28;;;;;;;17.11;71.14;102143.25;5055572;28;19923;-35
2022/05/21 09:26:24;;;;;;;11.13;4.35;;;;;;;16.89;71.16;102143.09;5055876;28;20029;-35
2022/05/21 09:28:49;;;;;;;11.68;4.75;;;;;;;16.95;71.47;102144.84;5055498;28;20090;-35
2022/05/21 09:31:27;;;;;;;;;;;;;;;17.29;70.63;102144.97;5056408;28;20029;-35
2022/05/21 09:33:52;;;;;;;8.73;4.15;;;;;;;17.61;69.18;102142.53;5055869;28;19958;-35
2022/05/21 09:36:30;;;;;;;;;;;;;;;17.88;69.94;102137.31;5054832;28;20432;-35
2022/05/21 09:38:56;;;;;;;6.15;2.60;;;;;;;18.00;67.15;102130.66;5055195;28;20276;-34
2022/05/21 09:41:22;;;;;;;;;;;;;;;18.19;68.26;102142.16;5055577;28;20029;-35
2022/05/21 09:46:41;;;;;;;6.65;2.22;;;;;;;17.53;63.62;102146.53;5055161;28;20080;-35
2022/05/21 09:49:20;;;;;;;9.68;3.78;;;;;;;17.38;66.99;102154.47;5055047;28;20124;-35
2022/05/21 09:51:54;;;;;;;11.60;4.10;;;;;;;17.24;68.51;102160.22;5055173;28;20033;-35
2022/05/21 09:54:23;;;;;;;15.43;4.63;;;;;;;17.25;69.77;102147.38;5055736;28;20084;-35
2022/05/21 09:56:52;;;;;;;10.00;3.70;;;;;;;17.46;68.56;102156.78;5053456;28;20560;-35
2022/05/21 09:59:21;;;;;;;9.48;3.30;;;;;;;17.48;66.27;102160.09;5053657;28;20028;-35
2022/05/21 10:01:59;;;;;;;10.60;3.33;;;;;;;17.60;66.05;102160.88;5055355;28;20033;-35
2022/05/21 10:04:24;;;;;;;7.97;2.78;;;;;;;17.62;66.07;102160.63;5055146;28;20029;-35
2022/05/21 10:06:58;;;;;;;;;;;;;;;17.78;68.15;102159.84;5055777;28;20098;-35
2022/05/21 10:12:27;;;;;;;9.98;2.83;;;;;;;18.21;64.45;102159.19;5054708;28;20408;-35
2022/05/21 10:14:57;;;;;;;7.85;2.60;;;;;;;18.21;64.09;102161.94;5054557;28;20473;-35
2022/05/21 10:17:32;;;;;;;8.45;2.90;;;;;;;18.14;65.38;102163.16;5054807;28;20112;-35
2022/05/21 10:20:36;;;;;;;7.83;2.90;;;;;;;17.96;64.07;102165.09;5054420;28;20048;-35
2022/05/21 10:23:10;;;;;;;7.63;3.08;;;;;;;17.94;65.39;102161.75;5032523;28;20039;-35
2022/05/21 10:26:01;;;;;;;9.93;3.22;;;;;;;18.07;65.50;102160.59;5032244;28;20433;-35
2022/05/21 10:28:32;;;;;;;8.85;3.10;;;;;;;18.11;64.67;102167.25;5032504;28;20033;-34
2022/05/21 10:31:13;;;;;;;8.05;2.97;;;;;;;18.02;63.68;102166.00;5032117;28;20379;-34
2022/05/21 10:34:16;;;;;;;5.90;2.45;;;;;;;17.96;64.45;102161.53;5032550;28;20046;-34
2022/05/21 10:37:00;;;;;;;9.68;2.20;;;;;;;17.75;64.01;102166.63;5032567;28;20033;-35
2022/05/21 10:39:46;;;;;;;9.82;3.22;;;;;;;17.55;65.39;102176.34;5032129;28;20129;-35
2022/05/21 10:42:42;;;;;;;8.53;2.70;;;;;;;17.38;65.39;102176.31;5031801;28;20045;-35
2022/05/21 10:45:24;;;;;;;11.88;3.30;;;;;;;17.31;65.61;102173.72;5031688;28;20069;-35
2022/05/21 10:48:16;;;;;;;10.15;3.22;;;;;;;17.67;66.89;102186.19;5031524;28;20029;-35
2022/05/21 10:50:51;;;;;;;10.13;3.08;;;;;;;18.10;63.92;102182.00;5031796;28;20390;-35
2022/05/21 10:53:41;;;;;;;7.32;3.42;;;;;;;18.51;63.89;102174.41;5032170;28;20127;-34
2022/05/21 10:56:31;;;;;;;9.23;3.28;;;;;;;18.85;63.54;102169.72;5031992;28;20083;-35
2022/05/21 10:59:04;;;;;;;8.23;3.00;;;;;;;18.79;61.99;102168.00;5045265;28;20044;-35
2022/05/21 11:01:34;;;;;;;6.75;2.88;;;;;;;18.56;62.47;102174.50;5053682;28;20481;-35
2022/05/21 11:04:02;;;;;;;7.63;3.03;;;;;;;18.38;63.30;102170.13;5053924;28;20104;-35
2022/05/21 11:06:51;;;;;;;12.20;3.15;;;;;;;18.27;63.88;102174.63;5053450;28;20504;-35
2022/05/21 11:09:40;;;;;;;9.15;2.88;;;;;;;18.17;62.83;102170.91;5053559;28;20032;-35
2022/05/21 11:12:11;;;;;;;8.25;2.75;;;;;;;18.21;62.22;102177.53;5054079;28;20036;-35
2022/05/21 11:14:56;;;;;;;8.55;2.55;;;;;;;18.20;62.84;102175.84;5053790;28;20082;-35
2022/05/21 11:17:51;;;;;;;7.85;2.50;;;;;;;18.17;62.36;102188.16;5054030;28;20044;-35
2022/05/21 11:20:20;;;;;;;7.95;1.98;;;;;;;18.07;61.40;102192.63;5053288;28;20370;-35
2022/05/21 11:23:14;;;;;;;5.78;1.60;;;;;;;18.42;62.11;102193.19;5053933;28;20377;-35
2022/05/21 11:25:48;;;;;;;6.40;1.70;;;;;;;18.64;60.69;102185.03;5053016;28;20107;-35
2022/05/21 11:28:25;;;;;;;8.85;2.17;;;;;;;18.94;60.66;102172.84;5054029;28;20082;-35
2022/05/21 11:31:01;;;;;;;6.32;1.98;;;;;;;19.27;59.32;102171.84;5053727;28;20381;-35
2022/05/21 11:39:06;;;;;;;6.13;2.05;;;;;;;19.70;56.58;102170.97;5053054;28;20063;-35
2022/05/21 11:42:17;;;;;;;6.30;2.22;;;;;;;19.79;57.79;102174.06;5053288;28;20047;-35
2022/05/21 11:45:08;;;;;;;8.50;2.33;;;;;;;19.86;57.60;102171.09;5031215;28;20029;-35
2022/05/21 11:47:49;;;;;;;8.52;2.80;;;;;;;19.97;57.07;102159.97;4991978;28;20046;-35
2022/05/21 11:50:17;;;;;;;7.90;2.08;;;;;;;20.02;55.14;102156.44;4992005;28;20057;-35
2022/05/21 11:52:51;;;;;;;6.82;2.08;;;;;;;20.16;55.24;102160.38;4991429;28;20042;-35
2022/05/21 11:55:24;;;;;;;5.88;1.77;;;;;;;20.18;54.02;102147.19;4991971;28;20053;-35
2022/05/21 11:57:57;;;;;;;7.68;2.30;;;;;;;20.18;53.28;102154.63;4991196;28;20042;-36
2022/05/21 12:00:25;;;;;;;7.88;2.08;;;;;;;20.33;52.56;102132.75;4992284;28;20041;-35
2022/05/21 12:02:53;;;;;;;8.07;2.03;;;;;;;20.58;52.78;102157.63;4995763;28;20117;-35
2022/05/21 12:05:49;;;;;;;7.18;2.13;;;;;;;20.40;54.12;102148.97;4995367;28;20114;-35
2022/05/21 12:08:14;;;;;;;6.30;1.75;;;;;;;20.00;53.07;102167.66;4995184;28;20034;-35
2022/05/21 12:10:55;;;;;;;5.37;1.77;;;;;;;19.65;54.49;102168.16;4995172;28;20036;-35
2022/05/21 12:13:31;;;;;;;6.95;1.90;;;;;;;19.66;54.70;102158.84;4995305;28;20645;-36